Time;durP1;ratioP1;P1;durP2;ratioP2;P2;SDS_P1;SDS_P2;PMS_P1;PMS_P2;Temp;Humidity;BMP_temperature;BMP_pressure;BME280_temperature;BME280_humidity;BME280_pressure;Samples;Min_cycle;Max_cycle;Signal;HPM_P1;HPM_P2
2021/06/24 00:01:10;;;;;;;7.77;5.73;;;;;;;18.23;60.33;101755.63;5037242;28;20202;-64
2021/06/24 00:03:36;;;;;;;6.57;5.07;;;;;;;18.24;60.37;101756.50;5037113;28;20186;-64
2021/06/24 00:06:03;;;;;;;7.60;5.67;;;;;;;18.29;59.69;101768.81;5037531;28;20175;-64
2021/06/24 00:08:29;;;;;;;5.83;5.30;;;;;;;18.32;59.70;101775.81;5040419;28;20166;-64
2021/06/24 00:10:55;;;;;;;11.20;6.03;;;;;;;18.41;59.31;101775.75;5042635;28;20437;-65
2021/06/24 00:13:21;;;;;;;6.50;5.70;;;;;;;18.25;59.58;101777.63;5041238;28;20173;-63
2021/06/24 00:15:46;;;;;;;10.47;5.90;;;;;;;17.99;60.66;101769.84;5040843;28;20412;-63
2021/06/24 00:18:12;;;;;;;8.30;5.90;;;;;;;17.93;60.81;101754.06;5039833;28;20178;-63
2021/06/24 00:20:38;;;;;;;7.30;5.30;;;;;;;17.89;61.13;101744.34;5043696;28;20249;-63
2021/06/24 00:23:04;;;;;;;6.93;5.97;;;;;;;17.78;61.05;101744.38;5040689;28;20447;-64
2021/06/24 00:25:30;;;;;;;5.87;5.13;;;;;;;18.18;60.33;101745.13;5040927;28;20420;-64
2021/06/24 00:27:55;;;;;;;6.43;5.80;;;;;;;18.20;60.12;101747.75;5040674;28;20445;-65
2021/06/24 00:30:21;;;;;;;6.93;5.60;;;;;;;18.21;60.00;101752.09;5045683;28;20189;-66
2021/06/24 00:32:46;;;;;;;8.27;5.97;;;;;;;18.14;60.16;101753.94;5060590;28;20176;-64
2021/06/24 00:35:13;;;;;;;9.10;6.40;;;;;;;18.20;60.10;101749.47;5060594;28;20221;-65
2021/06/24 00:37:40;;;;;;;8.10;6.13;;;;;;;17.95;60.87;101747.00;5057018;28;20206;-65
2021/06/24 00:40:07;;;;;;;10.07;5.90;;;;;;;18.16;60.45;101748.66;5049981;28;20476;-64
2021/06/24 00:42:33;;;;;;;7.80;6.20;;;;;;;17.97;60.62;101745.22;5040235;28;20449;-63
2021/06/24 00:44:58;;;;;;;5.83;5.30;;;;;;;17.97;60.99;101745.22;5040575;28;20869;-64
2021/06/24 00:47:24;;;;;;;11.67;6.70;;;;;;;18.09;60.93;101744.25;5040586;28;20403;-64
2021/06/24 00:49:50;;;;;;;10.37;7.57;;;;;;;17.83;61.70;101746.13;5041290;28;20178;-64
2021/06/24 00:52:16;;;;;;;6.50;5.83;;;;;;;18.17;60.80;101753.00;5040266;28;20576;-64
2021/06/24 00:54:41;;;;;;;12.00;8.67;;;;;;;18.06;61.05;101763.63;5040358;28;20528;-64
2021/06/24 00:57:07;;;;;;;16.23;11.50;;;;;;;18.14;60.81;101780.31;5040350;28;20197;-67
2021/06/24 00:59:36;;;;;;;14.03;9.90;;;;;;;18.05;60.92;101785.66;5040107;28;20225;-63
2021/06/24 01:02:03;;;;;;;11.07;7.03;;;;;;;18.37;60.26;101786.34;5041794;28;20193;-63
2021/06/24 01:04:28;;;;;;;13.50;10.23;;;;;;;18.04;61.25;101783.88;5040260;28;20444;-64
2021/06/24 01:06:54;;;;;;;11.23;9.90;;;;;;;18.21;60.80;101782.91;5040342;28;20665;-64
2021/06/24 01:09:19;;;;;;;29.13;22.87;;;;;;;18.12;60.81;101776.81;5040068;28;20261;-64
2021/06/24 01:11:45;;;;;;;6.90;6.10;;;;;;;18.17;60.77;101785.59;5041633;28;20449;-64
2021/06/24 01:14:11;;;;;;;8.50;7.47;;;;;;;18.00;61.59;101785.66;5040210;28;20529;-64
2021/06/24 01:16:37;;;;;;;7.57;6.77;;;;;;;18.25;60.89;101782.91;5055960;28;20409;-63
2021/06/24 01:19:03;;;;;;;8.90;7.63;;;;;;;18.23;61.05;101781.16;5059412;28;20292;-63
2021/06/24 01:21:29;;;;;;;8.53;6.60;;;;;;;18.41;60.69;101767.81;5052393;28;20502;-63
2021/06/24 01:23:54;;;;;;;8.70;7.60;;;;;;;18.26;60.69;101768.81;5040047;28;20522;-63
2021/06/24 01:26:21;;;;;;;8.40;7.20;;;;;;;18.26;61.24;101767.94;5039327;28;20268;-63
2021/06/24 01:28:46;;;;;;;13.43;8.70;;;;;;;17.73;62.42;101768.16;5040015;28;20188;-64
2021/06/24 01:31:13;;;;;;;14.40;8.03;;;;;;;17.87;62.24;101756.66;5043011;28;20427;-64
2021/06/24 01:33:38;;;;;;;10.20;6.80;;;;;;;17.66;63.00;101764.66;5059427;28;20176;-65
2021/06/24 01:36:05;;;;;;;7.43;6.73;;;;;;;17.76;62.43;101764.63;5057755;28;20570;-65
2021/06/24 01:38:31;;;;;;;10.40;7.40;;;;;;;17.72;62.44;101752.34;5059249;28;20201;-64
2021/06/24 01:40:57;;;;;;;8.87;7.20;;;;;;;17.78;62.32;101749.66;5056806;28;20491;-63
2021/06/24 01:43:22;;;;;;;8.43;7.03;;;;;;;17.88;61.87;101745.25;5039592;28;20700;-63
2021/06/24 01:45:58;;;;;;;9.87;6.73;;;;;;;17.91;61.63;101742.56;5039847;28;20419;-63
2021/06/24 01:48:25;;;;;;;10.10;7.50;;;;;;;17.93;61.80;101736.44;5039438;28;20520;-63
2021/06/24 01:50:52;;;;;;;8.30;6.80;;;;;;;17.82;61.91;101736.47;5042500;28;20436;-63
2021/06/24 01:53:17;;;;;;;8.83;7.10;;;;;;;18.05;61.27;101735.50;5040830;28;20498;-63
2021/06/24 01:55:43;;;;;;;10.27;7.20;;;;;;;17.92;61.33;101747.88;5039283;28;20383;-64
2021/06/24 01:58:12;;;;;;;11.20;6.80;;;;;;;17.82;62.04;101741.75;5039186;28;20178;-64
2021/06/24 02:00:41;;;;;;;7.93;7.13;;;;;;;17.89;61.57;101739.94;5042690;28;20201;-63
2021/06/24 02:03:07;;;;;;;6.87;6.27;;;;;;;18.10;61.32;101735.47;5045227;28;20665;-64
2021/06/24 02:05:32;;;;;;;10.37;7.23;;;;;;;17.96;61.29;101731.16;5038246;28;20396;-63
2021/06/24 02:07:57;;;;;;;12.87;6.93;;;;;;;17.74;62.18;101735.63;5039398;28;20173;-64
2021/06/24 02:10:23;;;;;;;8.83;7.27;;;;;;;17.97;61.43;101732.91;5040410;28;20170;-63
2021/06/24 02:12:48;;;;;;;7.60;6.80;;;;;;;17.61;62.49;101728.63;5053037;28;20253;-63
2021/06/24 02:15:14;;;;;;;9.13;7.60;;;;;;;17.72;62.14;101733.88;5039262;28;20174;-63
2021/06/24 02:17:40;;;;;;;9.30;7.00;;;;;;;17.73;62.36;101725.94;5055579;28;20469;-63
2021/06/24 02:20:11;;;;;;;9.03;7.30;;;;;;;17.41;63.25;101726.06;5058586;28;20458;-63
2021/06/24 02:22:37;;;;;;;13.30;7.50;;;;;;;17.51;62.77;101715.47;5038966;28;20455;-63
2021/06/24 02:25:04;;;;;;;8.23;7.43;;;;;;;17.65;62.48;101712.78;5039551;28;20460;-63
2021/06/24 02:27:30;;;;;;;7.23;6.53;;;;;;;17.42;63.24;101712.88;5038450;28;20174;-63
2021/06/24 02:29:55;;;;;;;8.63;7.33;;;;;;;17.63;62.84;101705.75;5044673;28;20927;-64
2021/06/24 02:32:20;;;;;;;10.87;7.40;;;;;;;17.42;63.24;101702.34;5040766;28;20280;-63
2021/06/24 02:34:47;;;;;;;8.10;6.83;;;;;;;17.30;63.82;101700.59;5039600;28;20243;-63
2021/06/24 02:37:12;;;;;;;8.10;7.37;;;;;;;17.41;63.26;101697.94;5038451;28;20536;-63
2021/06/24 02:39:37;;;;;;;9.43;8.20;;;;;;;17.41;63.16;101697.06;5038246;28;20432;-63
2021/06/24 02:42:03;;;;;;;7.50;6.70;;;;;;;17.41;62.70;101695.31;5037788;28;20190;-63
2021/06/24 02:44:28;;;;;;;7.37;6.67;;;;;;;17.65;62.08;101693.47;5039674;28;20173;-64
2021/06/24 02:46:54;;;;;;;7.67;6.50;;;;;;;17.62;62.03;101693.50;5038210;28;20388;-64
2021/06/24 02:49:19;;;;;;;7.07;6.37;;;;;;;17.37;62.58;101698.84;5038312;28;20170;-63
2021/06/24 02:51:46;;;;;;;7.63;6.87;;;;;;;17.12;63.49;101704.19;5037706;28;20189;-63
2021/06/24 02:54:13;;;;;;;10.20;7.47;;;;;;;17.48;62.63;101704.97;5037669;28;20265;-63
2021/06/24 02:56:40;;;;;;;8.10;6.80;;;;;;;17.56;62.45;101709.31;5040531;28;20419;-64
2021/06/24 02:59:06;;;;;;;8.80;7.00;;;;;;;17.47;62.73;101708.47;5037874;28;20437;-64
2021/06/24 03:01:31;;;;;;;10.50;6.83;;;;;;;17.88;61.72;101705.66;5037544;28;20770;-64
2021/06/24 03:03:56;;;;;;;7.40;6.57;;;;;;;18.09;61.00;101710.84;5037855;28;20575;-64
2021/06/24 03:06:22;;;;;;;9.27;7.33;;;;;;;17.61;62.30;101711.03;5039810;28;20186;-64
2021/06/24 03:08:48;;;;;;;8.47;7.50;;;;;;;17.80;61.81;101717.13;5038173;28;20552;-64
2021/06/24 03:11:15;;;;;;;7.57;6.87;;;;;;;17.73;62.18;101712.75;5038850;28;20252;-64
2021/06/24 03:13:40;;;;;;;10.87;7.30;;;;;;;17.81;61.89;101708.31;5037980;28;20165;-64
2021/06/24 03:16:06;;;;;;;14.43;9.30;;;;;;;17.64;62.33;101708.41;5038798;28;20414;-63
2021/06/24 03:18:31;;;;;;;10.53;7.20;;;;;;;17.59;62.30;101706.66;5053554;28;20205;-63
2021/06/24 03:20:56;;;;;;;12.50;7.27;;;;;;;17.67;62.26;101700.50;5057034;28;20279;-63
2021/06/24 03:23:22;;;;;;;8.20;7.40;;;;;;;17.34;63.40;101704.13;5043804;28;20186;-63
2021/06/24 03:25:48;;;;;;;8.23;7.40;;;;;;;17.20;63.51;101695.38;5037785;28;20173;-63
2021/06/24 03:28:13;;;;;;;8.67;7.27;;;;;;;17.47;63.04;101692.66;5039133;28;20495;-63
2021/06/24 03:30:40;;;;;;;8.23;7.43;;;;;;;17.67;62.52;101689.03;5043695;28;20436;-63
2021/06/24 03:33:05;;;;;;;13.40;7.90;;;;;;;17.63;62.58;101682.03;5057503;28;20557;-65
2021/06/24 03:35:31;;;;;;;9.77;8.10;;;;;;;17.45;63.34;101691.78;5057597;28;20550;-64
2021/06/24 03:37:56;;;;;;;9.27;7.10;;;;;;;17.51;63.26;101690.91;5044145;28;20201;-64
2021/06/24 03:40:22;;;;;;;8.10;7.30;;;;;;;17.55;63.20;101690.00;5046608;28;20201;-64
2021/06/24 03:42:47;;;;;;;8.33;7.10;;;;;;;17.53;63.28;101682.97;5061586;28;20254;-64
2021/06/24 03:45:13;;;;;;;10.43;6.97;;;;;;;17.47;63.44;101689.16;5049027;28;20512;-64
2021/06/24 03:47:41;;;;;;;10.10;7.63;;;;;;;17.43;63.35;101693.56;5041909;28;20169;-64
2021/06/24 03:50:06;;;;;;;8.77;7.90;;;;;;;17.38;63.65;101692.69;5041690;28;20686;-64
2021/06/24 03:52:32;;;;;;;12.73;7.83;;;;;;;17.49;63.25;101693.53;5041203;28;20413;-64
2021/06/24 03:54:57;;;;;;;8.10;7.07;;;;;;;17.74;62.71;101703.97;5042060;28;20162;-64
2021/06/24 03:57:22;;;;;;;12.20;9.00;;;;;;;17.95;62.07;101696.84;5054204;28;20189;-64
2021/06/24 03:59:48;;;;;;;10.43;8.37;;;;;;;17.94;62.29;101705.66;5057281;28;20586;-64
2021/06/24 04:02:13;;;;;;;9.40;8.50;;;;;;;17.85;62.19;101704.78;5041630;28;20205;-64
2021/06/24 04:04:40;;;;;;;8.63;7.40;;;;;;;17.68;62.88;101710.16;5041216;28;20257;-64
2021/06/24 04:07:06;;;;;;;9.43;7.73;;;;;;;17.75;62.35;101705.75;5041214;28;20273;-63
2021/06/24 04:09:31;;;;;;;8.90;7.70;;;;;;;17.59;62.95;101719.84;5055143;28;20446;-64
2021/06/24 04:11:56;;;;;;;9.10;7.10;;;;;;;17.75;62.23;101713.66;5042721;28;20268;-63
2021/06/24 04:14:21;;;;;;;8.10;7.30;;;;;;;17.98;61.44;101708.28;5042781;28;20190;-63
2021/06/24 04:16:47;;;;;;;11.37;7.80;;;;;;;17.70;62.18;101712.78;5061734;28;20216;-63
2021/06/24 04:19:14;;;;;;;7.87;6.73;;;;;;;18.00;61.46;101710.91;5055931;28;20272;-61
2021/06/24 04:21:39;;;;;;;11.10;7.40;;;;;;;17.95;61.74;101707.41;5060064;28;20177;-62
2021/06/24 04:24:04;;;;;;;9.37;7.30;;;;;;;17.96;62.09;101704.75;5061367;28;20415;-64
2021/06/24 04:26:30;;;;;;;8.90;7.73;;;;;;;18.14;60.93;101703.78;5058868;28;20264;-63
2021/06/24 04:28:55;;;;;;;8.77;7.77;;;;;;;17.97;61.35;101703.03;5040953;28;20185;-64
2021/06/24 04:31:20;;;;;;;13.10;7.73;;;;;;;18.13;60.97;101699.41;5044780;28;20190;-64
2021/06/24 04:33:46;;;;;;;10.57;7.10;;;;;;;18.11;60.87;101703.78;5040701;28;20209;-64
2021/06/24 04:36:11;;;;;;;8.73;7.23;;;;;;;18.34;60.25;101689.56;5040323;28;20234;-63
2021/06/24 04:38:36;;;;;;;8.87;6.60;;;;;;;18.30;59.94;101682.56;5040981;28;20198;-63
2021/06/24 04:41:02;;;;;;;13.13;7.50;;;;;;;19.48;56.76;101679.66;5041728;28;20206;-63
2021/06/24 04:43:27;;;;;;;11.70;6.30;;;;;;;20.42;53.98;101681.00;5039095;28;20228;-63
2021/06/24 04:45:52;;;;;;;12.13;5.70;;;;;;;20.66;53.19;101670.88;5043032;28;20481;-63
2021/06/24 04:48:18;;;;;;;6.97;6.40;;;;;;;21.53;50.86;101655.09;5050879;28;20566;-63
2021/06/24 04:50:43;;;;;;;7.40;6.73;;;;;;;21.97;49.84;101667.41;5060437;28;20197;-64
2021/06/24 04:53:09;;;;;;;6.43;5.80;;;;;;;21.68;49.85;101679.56;5059832;28;20171;-64
2021/06/24 04:55:40;;;;;;;6.63;5.90;;;;;;;20.52;52.57;101679.06;5060251;28;20201;-63
2021/06/24 04:58:06;;;;;;;11.77;6.20;;;;;;;19.87;54.37;101679.19;5060085;28;20578;-63
2021/06/24 05:00:33;;;;;;;8.47;7.50;;;;;;;19.90;55.30;101687.09;5060426;28;20508;-63
2021/06/24 05:02:59;;;;;;;7.17;6.13;;;;;;;19.60;55.74;101699.81;5059850;28;20466;-63
2021/06/24 05:05:24;;;;;;;6.10;5.53;;;;;;;21.04;50.83;101698.50;5059939;28;20430;-63
2021/06/24 05:07:49;;;;;;;8.07;6.50;;;;;;;20.73;51.78;101691.13;5060353;28;20172;-63
2021/06/24 05:10:15;;;;;;;7.77;7.00;;;;;;;20.43;52.29;101684.50;5059783;28;20169;-64
2021/06/24 05:12:40;;;;;;;8.73;6.40;;;;;;;19.63;54.74;101689.16;5056537;28;20178;-64
2021/06/24 05:15:06;;;;;;;7.87;6.03;;;;;;;19.45;54.83;101688.50;5060295;28;20427;-63
2021/06/24 05:17:32;;;;;;;11.53;8.43;;;;;;;19.30;56.00;101694.00;5059669;28;20166;-63
2021/06/24 05:19:58;;;;;;;7.27;5.70;;;;;;;18.88;56.62;101691.78;5058741;28;20570;-63
2021/06/24 05:22:24;;;;;;;9.93;6.17;;;;;;;18.67;56.94;101691.06;5059923;28;20161;-64
2021/06/24 05:24:49;;;;;;;7.77;7.00;;;;;;;19.16;56.23;101684.44;5059690;28;20710;-64
2021/06/24 05:27:15;;;;;;;8.00;5.80;;;;;;;19.00;56.95;101688.16;5045067;28;20510;-64
2021/06/24 05:29:40;;;;;;;9.00;6.67;;;;;;;18.81;56.49;101685.66;5040149;28;20158;-64
2021/06/24 05:32:06;;;;;;;6.80;5.43;;;;;;;18.49;57.19;101684.16;5039457;28;20212;-64
2021/06/24 05:34:32;;;;;;;6.70;5.30;;;;;;;18.72;56.89;101679.59;5039138;28;20190;-64
2021/06/24 05:37:00;;;;;;;8.00;5.80;;;;;;;18.56;56.95;101678.84;5039817;28;20471;-64
2021/06/24 05:39:25;;;;;;;11.57;5.70;;;;;;;18.58;56.76;101677.94;5039364;28;20433;-63
2021/06/24 05:41:55;;;;;;;8.73;5.20;;;;;;;18.58;56.63;101672.66;5054421;28;20414;-63
2021/06/24 05:44:20;;;;;;;6.10;5.50;;;;;;;18.34;56.39;101664.03;5059667;28;20162;-64
2021/06/24 05:46:45;;;;;;;6.33;5.27;;;;;;;18.44;56.10;101664.84;5044554;28;20451;-64
2021/06/24 05:49:11;;;;;;;7.93;5.67;;;;;;;18.08;56.94;101664.25;5048363;28;20190;-64
2021/06/24 05:51:36;;;;;;;7.60;5.43;;;;;;;18.87;54.48;101660.06;5049524;28;20203;-65
2021/06/24 05:54:01;;;;;;;7.13;6.50;;;;;;;18.81;54.25;101653.09;5052020;28;20189;-64
2021/06/24 05:56:27;;;;;;;6.33;5.30;;;;;;;19.04;54.20;101652.88;5058306;28;20165;-64
2021/06/24 05:58:52;;;;;;;5.57;5.03;;;;;;;19.48;52.75;101640.88;5059801;28;20216;-63
2021/06/24 06:01:20;;;;;;;5.60;5.10;;;;;;;19.34;53.38;101641.03;5042005;28;20241;-64
2021/06/24 06:03:45;;;;;;;6.67;5.53;;;;;;;19.87;52.09;101636.88;5050820;28;20175;-64
2021/06/24 06:06:11;;;;;;;7.20;6.03;;;;;;;20.03;51.98;101630.44;5061759;28;20523;-64
2021/06/24 06:08:36;;;;;;;6.03;4.80;;;;;;;19.51;51.70;101635.56;5049488;28;20273;-64
2021/06/24 06:11:01;;;;;;;6.20;5.37;;;;;;;19.49;52.32;101639.97;5038545;28;20178;-63
2021/06/24 06:13:27;;;;;;;6.50;4.73;;;;;;;19.59;51.93;101639.84;5040637;28;20569;-64
2021/06/24 06:15:52;;;;;;;7.80;4.73;;;;;;;19.22;53.52;101649.13;5041113;28;20185;-64
2021/06/24 06:18:19;;;;;;;6.40;4.70;;;;;;;19.59;52.41;101648.69;5047008;28;20177;-64
2021/06/24 06:20:46;;;;;;;9.23;5.50;;;;;;;17.93;55.43;101654.66;5058636;28;20454;-63
2021/06/24 06:23:12;;;;;;;7.77;5.10;;;;;;;17.69;56.83;101655.66;5062650;28;20403;-64
2021/06/24 06:25:45;;;;;;;6.60;5.20;;;;;;;18.10;56.14;101648.38;5075134;28;20517;-63
2021/06/24 06:28:11;;;;;;;6.13;4.80;;;;;;;18.33;55.39;101650.84;5073132;28;20457;-64
2021/06/24 06:30:37;;;;;;;7.17;5.17;;;;;;;19.10;53.28;101650.13;5074015;28;20177;-64
2021/06/24 06:33:02;;;;;;;5.50;4.67;;;;;;;19.00;53.22;101648.50;5055761;28;20499;-65
2021/06/24 06:35:29;;;;;;;6.83;4.47;;;;;;;19.59;51.60;101645.13;5070434;28;20454;-65
2021/06/24 06:37:54;;;;;;;4.80;4.40;;;;;;;19.79;50.70;101642.22;5073460;28;20185;-64
2021/06/24 06:40:19;;;;;;;5.97;4.83;;;;;;;20.21;50.15;101641.63;5072743;28;20446;-63
2021/06/24 06:42:45;;;;;;;6.03;4.03;;;;;;;20.32;48.92;101644.97;5074453;28;20227;-64
2021/06/24 06:45:11;;;;;;;4.77;4.23;;;;;;;21.68;45.93;101639.75;5074230;28;20204;-64
2021/06/24 06:47:36;;;;;;;5.13;4.00;;;;;;;20.53;48.18;101639.31;5073649;28;20199;-64
2021/06/24 06:50:02;;;;;;;4.43;4.00;;;;;;;21.56;45.22;101640.03;5068729;28;20531;-64
2021/06/24 06:52:28;;;;;;;4.50;4.10;;;;;;;20.17;48.62;101643.44;5054519;28;20162;-63
2021/06/24 06:54:53;;;;;;;6.83;3.83;;;;;;;21.68;45.77;101635.31;5074317;28;20177;-64
2021/06/24 06:57:18;;;;;;;5.97;4.03;;;;;;;23.98;40.42;101630.06;5079405;28;20276;-64
2021/06/24 06:59:43;;;;;;;4.63;4.13;;;;;;;25.76;37.28;101634.41;5071672;28;20192;-65
2021/06/24 07:02:09;;;;;;;4.00;3.70;;;;;;;23.79;40.29;101640.41;5072641;28;20173;-63
2021/06/24 07:04:34;;;;;;;7.27;3.93;;;;;;;26.83;34.60;101634.41;5072659;28;20239;-64
2021/06/24 07:07:00;;;;;;;4.30;3.40;;;;;;;28.37;31.74;101638.75;5074215;28;20177;-64
2021/06/24 07:09:25;;;;;;;4.83;3.60;;;;;;;23.09;40.82;101654.88;5074423;28;20488;-64
2021/06/24 07:11:50;;;;;;;3.90;3.53;;;;;;;23.08;41.58;101645.13;5072877;28;20279;-64
2021/06/24 07:14:17;;;;;;;4.07;3.67;;;;;;;26.68;34.26;101635.03;5062459;28;20704;-64
2021/06/24 07:16:42;;;;;;;4.50;3.40;;;;;;;27.66;33.48;101634.22;5059152;28;20177;-64
2021/06/24 07:19:08;;;;;;;3.97;3.67;;;;;;;25.07;36.99;101646.75;5072065;28;20489;-64
2021/06/24 07:21:33;;;;;;;4.17;3.77;;;;;;;26.83;34.78;101638.88;5065448;28;20478;-65
2021/06/24 07:23:58;;;;;;;4.93;3.83;;;;;;;30.19;29.50;101628.84;5053184;28;20316;-65
2021/06/24 07:26:23;;;;;;;4.40;3.60;;;;;;;28.69;30.69;101638.94;5053061;28;20170;-63
2021/06/24 07:28:49;;;;;;;4.27;3.60;;;;;;;29.66;29.33;101630.13;5057158;28;20461;-66
2021/06/24 07:31:14;;;;;;;4.03;3.43;;;;;;;29.06;29.63;101634.28;5071322;28;20231;-67
2021/06/24 07:33:39;;;;;;;5.30;3.30;;;;;;;27.17;31.69;101637.34;5063860;28;20507;-66
2021/06/24 07:36:05;;;;;;;7.53;3.40;;;;;;;27.09;32.39;101640.41;5045836;28;20228;-66
2021/06/24 07:38:30;;;;;;;5.03;3.27;;;;;;;27.38;31.74;101641.72;5052521;28;20172;-65
2021/06/24 07:40:56;;;;;;;3.73;3.43;;;;;;;27.15;32.98;101629.38;5048002;28;20427;-66
2021/06/24 07:43:21;;;;;;;3.47;3.17;;;;;;;24.96;36.26;101639.16;5049301;28;20277;-66
2021/06/24 07:45:47;;;;;;;3.70;3.40;;;;;;;25.43;35.94;101632.16;5048704;28;20558;-65
2021/06/24 07:48:12;;;;;;;4.33;3.87;;;;;;;25.43;35.39;101635.66;5060019;28;20256;-65
2021/06/24 07:50:38;;;;;;;3.77;3.47;;;;;;;25.56;34.38;101633.41;5055645;28;20479;-67
2021/06/24 07:53:04;;;;;;;3.70;3.40;;;;;;;27.99;31.41;101622.78;5040439;28;20239;-66
2021/06/24 07:55:33;;;;;;;6.10;3.70;;;;;;;28.25;30.63;101615.25;5051061;28;20187;-65
2021/06/24 07:58:03;;;;;;;5.23;3.30;;;;;;;28.80;30.27;101609.72;5065925;28;20441;-65
2021/06/24 08:00:28;;;;;;;5.43;3.73;;;;;;;29.64;28.54;101608.72;5041560;28;20839;-68
2021/06/24 08:02:54;;;;;;;3.90;3.50;;;;;;;29.28;29.01;101604.50;5050598;28;20459;-67
2021/06/24 08:05:19;;;;;;;4.30;3.60;;;;;;;28.81;29.45;101605.25;5050008;28;20277;-66
2021/06/24 08:07:47;;;;;;;5.43;3.37;;;;;;;28.66;28.68;101604.22;5039727;28;20436;-65
2021/06/24 08:10:13;;;;;;;4.43;2.90;;;;;;;27.84;30.58;101603.81;5039625;28;20240;-65
2021/06/24 08:12:40;;;;;;;4.90;4.23;;;;;;;30.72;26.23;101601.50;5044846;28;20468;-66
2021/06/24 08:15:07;;;;;;;6.73;3.60;;;;;;;29.40;27.54;101600.22;5045266;28;20527;-64
2021/06/24 08:17:32;;;;;;;4.20;3.77;;;;;;;29.35;27.71;101596.91;5038652;28;20444;-65
2021/06/24 08:19:58;;;;;;;7.87;3.80;;;;;;;31.22;25.73;101600.16;5039544;28;20448;-65
2021/06/24 08:22:24;;;;;;;3.60;3.30;;;;;;;28.97;28.54;101605.25;5039451;28;20194;-65
2021/06/24 08:24:49;;;;;;;4.20;3.80;;;;;;;29.69;28.30;101606.63;5041969;28;20230;-65
2021/06/24 08:27:14;;;;;;;3.63;3.33;;;;;;;30.95;26.48;101593.84;5039943;28;20698;-65
2021/06/24 08:29:40;;;;;;;4.30;3.90;;;;;;;30.24;26.81;101604.38;5039665;28;20409;-64
2021/06/24 08:32:06;;;;;;;3.80;3.50;;;;;;;29.92;27.29;101596.41;5039580;28;20223;-65
2021/06/24 08:34:33;;;;;;;3.50;3.20;;;;;;;30.11;27.14;101596.19;5042734;28;20202;-65
2021/06/24 08:36:58;;;;;;;4.90;3.87;;;;;;;28.37;30.21;101603.91;5039403;28;20208;-65
2021/06/24 08:39:23;;;;;;;4.40;4.00;;;;;;;26.80;32.68;101588.19;5039277;28;20500;-66
2021/06/24 08:41:51;;;;;;;4.27;3.97;;;;;;;25.45;34.55;101598.22;5039650;28;20182;-65
2021/06/24 08:44:17;;;;;;;4.13;3.80;;;;;;;25.48;35.66;101595.44;5040184;28;20291;-65
2021/06/24 08:46:43;;;;;;;4.73;4.23;;;;;;;25.58;35.39;101602.16;5048059;28;20443;-65
2021/06/24 08:49:09;;;;;;;6.27;4.60;;;;;;;24.10;38.19;101597.69;5043025;28;20527;-65
2021/06/24 08:51:34;;;;;;;6.73;3.93;;;;;;;24.70;36.61;101600.97;5041118;28;20759;-65
2021/06/24 08:54:00;;;;;;;7.40;4.60;;;;;;;24.92;36.60;101594.00;5041521;28;20182;-64
2021/06/24 08:56:26;;;;;;;6.97;4.53;;;;;;;26.37;34.55;101583.78;5045848;28;20186;-65
2021/06/24 08:58:52;;;;;;;5.60;4.80;;;;;;;26.22;34.26;101588.00;5042856;28;20445;-63
2021/06/24 09:01:18;;;;;;;5.73;4.50;;;;;;;27.83;32.11;101580.69;5042213;28;20470;-64
2021/06/24 09:03:46;;;;;;;5.53;4.60;;;;;;;28.06;30.63;101576.88;5049850;28;20530;-64
2021/06/24 09:06:11;;;;;;;6.03;4.77;;;;;;;29.29;29.73;101575.78;5055287;28;20447;-64
2021/06/24 09:08:52;;;;;;;6.40;3.90;;;;;;;27.27;32.93;101576.25;5043982;28;20858;-64
2021/06/24 09:11:21;;;;;;;5.33;4.17;;;;;;;25.62;35.29;101589.56;5039018;28;20170;-66
2021/06/24 09:13:59;;;;;;;5.73;4.13;;;;;;;25.52;35.55;101587.25;5038533;28;20405;-65
2021/06/24 09:16:27;;;;;;;5.00;4.30;;;;;;;25.13;36.92;101585.19;5038411;28;20423;-65
2021/06/24 09:19:15;;;;;;;4.73;4.27;;;;;;;24.86;37.46;101595.09;5043303;28;20437;-65
2021/06/24 09:21:41;;;;;;;5.00;4.60;;;;;;;25.05;37.55;101597.94;5038470;28;20413;-64
2021/06/24 09:24:26;;;;;;;4.80;4.40;;;;;;;24.37;38.86;101593.22;5038086;28;20909;-64
2021/06/24 09:26:52;;;;;;;5.53;4.93;;;;;;;24.36;39.46;101593.28;5038163;28;20165;-65
2021/06/24 09:29:18;;;;;;;4.73;4.33;;;;;;;24.23;39.27;101594.63;5039339;28;20448;-63
2021/06/24 09:31:44;;;;;;;5.17;4.40;;;;;;;24.01;39.96;101582.88;5037988;28;20178;-65
2021/06/24 09:34:11;;;;;;;4.67;4.33;;;;;;;23.91;39.45;101593.88;5037951;28;20425;-65
2021/06/24 09:36:45;;;;;;;5.73;4.73;;;;;;;23.56;40.50;101588.75;5039695;28;20439;-64
2021/06/24 09:39:29;;;;;;;6.43;5.20;;;;;;;24.22;40.90;101588.44;5054704;28;20796;-65
2021/06/24 09:42:07;;;;;;;6.40;5.27;;;;;;;23.83;40.64;101584.34;5050290;28;20432;-64
2021/06/24 09:44:34;;;;;;;5.83;5.33;;;;;;;23.02;42.60;101599.16;5051910;28;20463;-65
2021/06/24 09:47:01;;;;;;;9.47;8.47;;;;;;;22.90;43.04;101596.88;5041778;28;20448;-65
2021/06/24 09:49:26;;;;;;;6.30;5.20;;;;;;;23.22;42.12;101595.09;5044288;28;20453;-66
2021/06/24 09:51:53;;;;;;;6.60;6.00;;;;;;;23.67;41.27;101591.94;5040420;28;20447;-65
2021/06/24 09:54:18;;;;;;;6.17;5.60;;;;;;;24.99;38.87;101587.50;5042183;28;20182;-65
2021/06/24 09:56:48;;;;;;;6.27;5.67;;;;;;;25.69;37.53;101578.56;5037268;28;20459;-64
2021/06/24 09:59:15;;;;;;;6.00;5.40;;;;;;;25.48;37.73;101588.31;5039300;28;20197;-64
2021/06/24 10:01:49;;;;;;;7.97;5.47;;;;;;;25.00;37.33;101589.25;5036558;28;20444;-64
2021/06/24 10:04:31;;;;;;;5.83;5.10;;;;;;;24.56;38.70;101584.59;5038170;28;20534;-64
2021/06/24 10:07:01;;;;;;;5.73;5.23;;;;;;;24.38;39.49;101586.06;5040255;28;20440;-64
2021/06/24 10:09:27;;;;;;;5.60;5.00;;;;;;;23.55;41.43;101579.88;5047404;28;20531;-65
2021/06/24 10:11:53;;;;;;;7.03;6.33;;;;;;;23.78;40.66;101582.75;5054588;28;20458;-64
2021/06/24 10:14:19;;;;;;;6.53;5.93;;;;;;;22.98;42.22;101588.69;5048433;28;20441;-65
2021/06/24 10:16:51;;;;;;;6.40;5.80;;;;;;;23.49;41.17;101585.41;5053327;28;20177;-65
2021/06/24 10:19:19;;;;;;;6.00;5.43;;;;;;;23.50;41.87;101581.84;5044085;28;20436;-64
2021/06/24 10:21:49;;;;;;;8.53;7.60;;;;;;;23.62;42.63;101582.34;5037131;28;20436;-65
2021/06/24 10:24:18;;;;;;;7.80;7.00;;;;;;;23.38;42.65;101582.19;5036611;28;20537;-64
2021/06/24 10:26:45;;;;;;;9.33;6.40;;;;;;;23.63;42.03;101586.78;5036741;28;20523;-64
2021/06/24 10:29:18;;;;;;;10.33;7.90;;;;;;;23.52;42.12;101587.97;5037603;28;20437;-64
2021/06/24 10:31:50;;;;;;;6.57;5.97;;;;;;;23.74;41.71;101583.75;5037712;28;20451;-65
2021/06/24 10:34:16;;;;;;;8.67;6.47;;;;;;;23.15;42.55;101583.78;5056719;28;20459;-64
2021/06/24 10:37:11;;;;;;;10.27;9.23;;;;;;;23.11;42.81;101576.78;5056062;28;20471;-63
2021/06/24 10:39:38;;;;;;;8.10;7.20;;;;;;;23.94;41.44;101573.34;5038323;28;20186;-65
2021/06/24 10:42:06;;;;;;;7.30;6.70;;;;;;;23.60;41.64;101578.84;5035865;28;20436;-64
2021/06/24 10:44:57;;;;;;;7.23;6.53;;;;;;;23.48;41.91;101573.00;5037238;28;20503;-64
2021/06/24 10:47:41;;;;;;;7.77;7.00;;;;;;;23.96;40.81;101570.63;5037350;28;20405;-64
2021/06/24 10:50:32;;;;;;;6.50;5.73;;;;;;;24.24;39.51;101564.41;5039911;28;20505;-63
2021/06/24 10:53:03;;;;;;;6.90;6.30;;;;;;;24.32;39.33;101563.19;5041243;28;20413;-64
2021/06/24 10:55:34;;;;;;;6.53;5.90;;;;;;;23.66;39.82;101560.03;5044927;28;20422;-64
2021/06/24 10:58:00;;;;;;;9.20;6.20;;;;;;;24.19;39.41;101561.88;5076979;28;20411;-67
2021/06/24 11:00:39;;;;;;;5.63;5.23;;;;;;;24.93;37.81;101556.59;5055676;28;20467;-64
2021/06/24 11:03:07;;;;;;;6.30;5.70;;;;;;;24.60;38.43;101556.00;5040640;28;20178;-65
2021/06/24 11:05:37;;;;;;;10.13;9.10;;;;;;;25.13;37.95;101552.31;5043737;28;20741;-64
2021/06/24 11:08:15;;;;;;;6.00;5.50;;;;;;;25.30;37.97;101556.97;5057223;28;20412;-65
2021/06/24 11:10:55;;;;;;;8.67;6.13;;;;;;;25.03;37.17;101549.09;5043059;28;20767;-65
2021/06/24 11:16:10;;;;;;;5.80;5.20;;;;;;;24.91;36.80;101545.13;5040654;28;20440;-65
2021/06/24 11:18:36;;;;;;;5.33;4.93;;;;;;;25.18;37.34;101548.53;5040797;28;20419;-65
2021/06/24 11:21:03;;;;;;;5.13;4.70;;;;;;;26.83;35.56;101546.13;5055740;28;20432;-65
2021/06/24 11:23:34;;;;;;;8.27;5.07;;;;;;;27.43;32.52;101537.09;5040086;28;20170;-65
2021/06/24 11:26:28;;;;;;;5.07;4.67;;;;;;;27.39;33.27;101535.50;5042012;28;20440;-63